Columbia, Iowa
Current Conditions -  °F | °C
As of 5:15 PM on Wednesday 26 Nov 2014 (Local Time) from KOXV Reporting Station
Light Snow Light Snow  
Wind Chill: -5°   Ceiling: 600
Heat Index: -1°   Visibility: 2.5mi
Dew Point: -2°   Wind: 7mph
Humidity: 93%   Direction: 360°N
Pressure: 30.13"   Gusts: 13mph
Location:  41.18°N, 93.15°W
Report Text: KOXV 262315Z AUTO 36006G11KT 2 1/2SM -SN BKN006 OVC015 M01/M02 A3013 RMK AO2
Loading
Personal Weather Stations






























Interactive Weather Map New forecast layout! Learn more

10-Day Weather Forecast

Advertisements
Track Severe Weather on mobile